Time;durP1;ratioP1;P1;durP2;ratioP2;P2;SDS_P1;SDS_P2;PMS_P1;PMS_P2;Temp;Humidity;BMP_temperature;BMP_pressure;BME280_temperature;BME280_humidity;BME280_pressure;Samples;Min_cycle;Max_cycle;Signal;HPM_P1;HPM_P2
2022/01/06 00:01:19;;;;;;;;;;;;;;;;;;5038671;28;19925;-73
2022/01/06 00:03:45;;;;;;;;;;;;;;;;;;5035524;28;19921;-72
2022/01/06 00:06:11;;;;;;;;;;;;;;;;;;5036283;28;20339;-72
2022/01/06 00:08:38;;;;;;;;;;;;;;;;;;5029516;28;20008;-73
2022/01/06 00:11:06;;;;;;;;;;;;;;;;;;5036273;28;20521;-72
2022/01/06 00:13:47;;;;;;;;;;;;;;;;;;5033930;28;19920;-72
2022/01/06 00:16:26;;;;;;;;;;;;;;;;;;5030088;28;19917;-72
2022/01/06 00:24:13;;;;;;;;;;;;;;;;;;5027571;28;19924;-73
2022/01/06 00:26:38;;;;;;;;;;;;;;;;;;5036142;28;19977;-72
2022/01/06 00:29:04;;;;;;;;;;;;;;;;;;5036737;28;19921;-73
2022/01/06 00:31:30;;;;;;;;;;;;;;;;;;5035886;28;19913;-72
2022/01/06 00:33:56;;;;;;;;;;;;;;;;;;5034362;28;20237;-72
2022/01/06 00:36:22;;;;;;;;;;;;;;;;;;5030127;28;19913;-72
2022/01/06 00:38:48;;;;;;;;;;;;;;;;;;5028288;28;19936;-72
2022/01/06 00:41:14;;;;;;;;;;;;;;;;;;5029796;28;19964;-72
2022/01/06 00:43:40;;;;;;;;;;;;;;;;;;5034584;28;20370;-72
2022/01/06 00:46:06;;;;;;;;;;;;;;;;;;5032119;28;20341;-72
2022/01/06 00:48:31;;;;;;;;;;;;;;;;;;5038309;28;19917;-72
2022/01/06 00:50:57;;;;;;;;;;;;;;;;;;5037082;28;20000;-73
2022/01/06 00:53:23;;;;;;;;;;;;;;;;;;5037307;28;19924;-72
2022/01/06 00:55:49;;;;;;;;;;;;;;;;;;5031413;28;19924;-72
2022/01/06 00:58:15;;;;;;;;;;;;;;;;;;5037382;28;19925;-72
2022/01/06 01:00:41;;;;;;;;;;;;;;;;;;5034767;28;19913;-72
2022/01/06 01:03:07;;;;;;;;;;;;;;;;;;5031993;28;19952;-72
2022/01/06 01:05:33;;;;;;;;;;;;;;;;;;5034394;28;19956;-72
2022/01/06 01:07:59;;;;;;;;;;;;;;;;;;5032481;28;19927;-72
2022/01/06 01:10:25;;;;;;;;;;;;;;;;;;5031517;28;20012;-72
2022/01/06 01:12:51;;;;;;;;;;;;;;;;;;5025545;28;21313;-73
2022/01/06 01:15:20;;;;;;;;;;;;;;;;;;5030250;28;20014;-73
2022/01/06 01:17:47;;;;;;;;;;;;;;;;;;5034311;28;19932;-72
2022/01/06 01:20:14;;;;;;;;;;;;;;;;;;5034806;28;19921;-72
2022/01/06 01:22:40;;;;;;;;;;;;;;;;;;5031878;28;19917;-72
2022/01/06 01:25:06;;;;;;;;;;;;;;;;;;5028058;28;19913;-72
2022/01/06 01:27:37;;;;;;;;;;;;;;;;;;5027786;28;19920;-72
2022/01/06 01:30:09;;;;;;;;;;;;;;;;;;5031613;28;20216;-72
2022/01/06 01:32:36;;;;;;;;;;;;;;;;;;5028549;28;19973;-72
2022/01/06 01:35:03;;;;;;;;;;;;;;;;;;5027268;28;19913;-72
2022/01/06 01:37:29;;;;;;;;;;;;;;;;;;5034349;28;19924;-72
2022/01/06 01:39:54;;;;;;;;;;;;;;;;;;5035044;28;19921;-72
2022/01/06 01:42:20;;;;;;;;;;;;;;;;;;5032273;28;19966;-72
2022/01/06 01:44:48;;;;;;;;;;;;;;;;;;5032281;28;20466;-72
2022/01/06 01:47:15;;;;;;;;;;;;;;;;;;5030431;28;19916;-72
2022/01/06 01:49:51;;;;;;;;;;;;;;;;;;5030733;28;19928;-72
2022/01/06 01:52:17;;;;;;;;;;;;;;;;;;5035057;28;19925;-72
2022/01/06 01:54:43;;;;;;;;;;;;;;;;;;5035891;28;20255;-72
2022/01/06 01:57:09;;;;;;;;;;;;;;;;;;5034978;28;20533;-73
2022/01/06 01:59:35;;;;;;;;;;;;;;;;;;5022470;28;20339;-71
2022/01/06 02:02:01;;;;;;;;;;;;;;;;;;5030499;28;20371;-72
2022/01/06 02:04:27;;;;;;;;;;;;;;;;;;5030495;28;19956;-72
2022/01/06 02:06:52;;;;;;;;;;;;;;;;;;5032756;28;19917;-72
2022/01/06 02:09:18;;;;;;;;;;;;;;;;;;5032287;28;19928;-72
2022/01/06 02:11:44;;;;;;;;;;;;;;;;;;5032027;28;20571;-72
2022/01/06 02:14:10;;;;;;;;;;;;;;;;;;5036334;28;19925;-72
2022/01/06 02:16:37;;;;;;;;;;;;;;;;;;5034483;28;20339;-71
2022/01/06 02:19:03;;;;;;;;;;;;;;;;;;5033479;28;19989;-72
2022/01/06 02:21:29;;;;;;;;;;;;;;;;;;5031930;28;19921;-72
2022/01/06 02:23:55;;;;;;;;;;;;;;;;;;5030516;28;19925;-72
2022/01/06 02:26:21;;;;;;;;;;;;;;;;;;5031663;28;19913;-73
2022/01/06 02:28:47;;;;;;;;;;;;;;;;;;5032812;28;19973;-72
2022/01/06 02:31:13;;;;;;;;;;;;;;;;;;5032037;28;20008;-72
2022/01/06 02:33:39;;;;;;;;;;;;;;;;;;5027736;28;20467;-72
2022/01/06 02:36:05;;;;;;;;;;;;;;;;;;5033149;28;19921;-72
2022/01/06 02:38:31;;;;;;;;;;;;;;;;;;5033971;28;19921;-72
2022/01/06 02:40:56;;;;;;;;;;;;;;;;;;5029749;28;19921;-73
2022/01/06 02:43:24;;;;;;;;;;;;;;;;;;5034745;28;19989;-72
2022/01/06 02:45:50;;;;;;;;;;;;;;;;;;5030898;28;19973;-72
2022/01/06 02:48:16;;;;;;;;;;;;;;;;;;5030105;28;19920;-72
2022/01/06 02:50:42;;;;;;;;;;;;;;;;;;5032803;28;19968;-72
2022/01/06 02:53:08;;;;;;;;;;;;;;;;;;5039094;28;19941;-72
2022/01/06 02:55:34;;;;;;;;;;;;;;;;;;5039766;28;19917;-72
2022/01/06 02:57:59;;;;;;;;;;;;;;;;;;5033257;28;20278;-72
2022/01/06 03:00:25;;;;;;;;;;;;;;;;;;5028376;28;19931;-72
2022/01/06 03:02:51;;;;;;;;;;;;;;;;;;5030849;28;19977;-72
2022/01/06 03:05:17;;;;;;;;;;;;;;;;;;5031287;28;20343;-72
2022/01/06 03:07:43;;;;;;;;;;;;;;;;;;5033451;28;19917;-72
2022/01/06 03:10:11;;;;;;;;;;;;;;;;;;5034093;28;19964;-72
2022/01/06 03:12:40;;;;;;;;;;;;;;;;;;5032057;28;20542;-72
2022/01/06 03:15:06;;;;;;;;;;;;;;;;;;5031352;28;20592;-72
2022/01/06 03:17:32;;;;;;;;;;;;;;;;;;5031999;28;19929;-72
2022/01/06 03:19:57;;;;;;;;;;;;;;;;;;5034010;28;19921;-72
2022/01/06 03:22:23;;;;;;;;;;;;;;;;;;5026245;28;19972;-73
2022/01/06 03:24:49;;;;;;;;;;;;;;;;;;5031751;28;19921;-73
2022/01/06 03:27:15;;;;;;;;;;;;;;;;;;5029408;28;20409;-72
2022/01/06 03:29:41;;;;;;;;;;;;;;;;;;5032489;28;19965;-72
2022/01/06 03:32:07;;;;;;;;;;;;;;;;;;5034027;28;19923;-72
2022/01/06 03:34:33;;;;;;;;;;;;;;;;;;5032972;28;19917;-72
2022/01/06 03:37:00;;;;;;;;;;;;;;;;;;5034389;28;20493;-72
2022/01/06 03:39:25;;;;;;;;;;;;;;;;;;5029398;28;19933;-72
2022/01/06 03:41:51;;;;;;;;;;;;;;;;;;5029823;28;20540;-71
2022/01/06 03:44:18;;;;;;;;;;;;;;;;;;5026204;28;19935;-71
2022/01/06 03:46:44;;;;;;;;;;;;;;;;;;5033509;28;19917;-72
2022/01/06 03:49:10;;;;;;;;;;;;;;;;;;5030281;28;20356;-72
2022/01/06 03:51:35;;;;;;;;;;;;;;;;;;5030107;28;19916;-72
2022/01/06 03:54:01;;;;;;;;;;;;;;;;;;5032220;28;19913;-72
2022/01/06 03:56:27;;;;;;;;;;;;;;;;;;5027624;28;19917;-73
2022/01/06 03:58:53;;;;;;;;;;;;;;;;;;5032666;28;19936;-72
2022/01/06 04:01:19;;;;;;;;;;;;;;;;;;5029306;28;20474;-72
2022/01/06 04:03:47;;;;;;;;;;;;;;;;;;5029576;28;19929;-73
2022/01/06 04:06:13;;;;;;;;;;;;;;;;;;5032052;28;19917;-72
2022/01/06 04:08:39;;;;;;;;;;;;;;;;;;5030025;28;20314;-73
2022/01/06 04:11:04;;;;;;;;;;;;;;;;;;5033958;28;19950;-72
2022/01/06 04:13:30;;;;;;;;;;;;;;;;;;5031419;28;20016;-72
2022/01/06 04:15:59;;;;;;;;;;;;;;;;;;5031359;28;19912;-72
2022/01/06 04:18:24;;;;;;;;;;;;;;;;;;5031864;28;20374;-73
2022/01/06 04:20:50;;;;;;;;;;;;;;;;;;5038078;28;19967;-72
2022/01/06 04:23:16;;;;;;;;;;;;;;;;;;5029965;28;20396;-72
2022/01/06 04:25:42;;;;;;;;;;;;;;;;;;5030854;28;19913;-72
2022/01/06 04:28:08;;;;;;;;;;;;;;;;;;5030568;28;19917;-72
2022/01/06 04:30:34;;;;;;;;;;;;;;;;;;5032661;28;19927;-72
2022/01/06 04:33:00;;;;;;;;;;;;;;;;;;5032586;28;20693;-72
2022/01/06 04:35:25;;;;;;;;;;;;;;;;;;5034363;28;19960;-72
2022/01/06 04:37:51;;;;;;;;;;;;;;;;;;5032068;28;19921;-72
2022/01/06 04:40:17;;;;;;;;;;;;;;;;;;5035056;28;20358;-72
2022/01/06 04:42:43;;;;;;;;;;;;;;;;;;5034697;28;20020;-72
2022/01/06 04:45:09;;;;;;;;;;;;;;;;;;5035414;28;20563;-72
2022/01/06 04:47:35;;;;;;;;;;;;;;;;;;5034736;28;19921;-72
2022/01/06 04:50:01;;;;;;;;;;;;;;;;;;5036452;28;20009;-73
2022/01/06 04:52:26;;;;;;;;;;;;;;;;;;5036217;28;19918;-72
2022/01/06 04:54:52;;;;;;;;;;;;;;;;;;5032527;28;20538;-72
2022/01/06 04:57:18;;;;;;;;;;;;;;;;;;5036800;28;19928;-72
2022/01/06 04:59:44;;;;;;;;;;;;;;;;;;5033719;28;19913;-71
2022/01/06 05:02:10;;;;;;;;;;;;;;;;;;5030097;28;19940;-72
2022/01/06 05:04:36;;;;;;;;;;;;;;;;;;5033280;28;20284;-72
2022/01/06 05:07:02;;;;;;;;;;;;;;;;;;5030405;28;19921;-72
2022/01/06 05:09:27;;;;;;;;;;;;;;;;;;5028118;28;19913;-72
2022/01/06 05:11:53;;;;;;;;;;;;;;;;;;5026826;28;20623;-72
2022/01/06 05:14:19;;;;;;;;;;;;;;;;;;5031994;28;20001;-72
2022/01/06 05:16:45;;;;;;;;;;;;;;;;;;5035670;28;20766;-72
2022/01/06 05:19:11;;;;;;;;;;;;;;;;;;5035014;28;19939;-73
2022/01/06 05:21:37;;;;;;;;;;;;;;;;;;5029372;28;19921;-73
2022/01/06 05:24:10;;;;;;;;;;;;;;;;;;5033763;28;19921;-72
2022/01/06 05:26:38;;;;;;;;;;;;;;;;;;5034843;28;19913;-72
2022/01/06 05:29:04;;;;;;;;;;;;;;;;;;5031088;28;19947;-72
2022/01/06 05:31:30;;;;;;;;;;;;;;;;;;5036193;28;19941;-72
2022/01/06 05:33:55;;;;;;;;;;;;;;;;;;5036727;28;20004;-72
2022/01/06 05:36:21;;;;;;;;;;;;;;;;;;5033390;28;20001;-72
2022/01/06 05:38:47;;;;;;;;;;;;;;;;;;5030331;28;19921;-72
2022/01/06 05:41:13;;;;;;;;;;;;;;;;;;5028870;28;20049;-72
2022/01/06 05:43:39;;;;;;;;;;;;;;;;;;5033291;28;19917;-72
2022/01/06 05:46:05;;;;;;;;;;;;;;;;;;5031042;28;20060;-72
2022/01/06 05:48:31;;;;;;;;;;;;;;;;;;5029212;28;19918;-72
2022/01/06 05:50:57;;;;;;;;;;;;;;;;;;5029799;28;19921;-72
2022/01/06 05:53:23;;;;;;;;;;;;;;;;;;5035529;28;19965;-73
2022/01/06 05:55:48;;;;;;;;;;;;;;;;;;5031863;28;19924;-72
2022/01/06 05:58:14;;;;;;;;;;;;;;;;;;5034633;28;19925;-73
2022/01/06 06:00:40;;;;;;;;;;;;;;;;;;5030649;28;20346;-72
2022/01/06 06:03:06;;;;;;;;;;;;;;;;;;5034283;28;19912;-73
2022/01/06 06:05:32;;;;;;;;;;;;;;;;;;5028409;28;19969;-72
2022/01/06 06:07:58;;;;;;;;;;;;;;;;;;5032926;28;19920;-72
2022/01/06 06:10:24;;;;;;;;;;;;;;;;;;5034798;28;19961;-72
2022/01/06 06:12:52;;;;;;;;;;;;;;;;;;5031989;28;20524;-72
2022/01/06 06:15:18;;;;;;;;;;;;;;;;;;5033416;28;19916;-72
2022/01/06 06:17:44;;;;;;;;;;;;;;;;;;5034423;28;20361;-72
2022/01/06 06:20:10;;;;;;;;;;;;;;;;;;5030490;28;19924;-72
2022/01/06 06:22:36;;;;;;;;;;;;;;;;;;5034837;28;20465;-72
2022/01/06 06:25:02;;;;;;;;;;;;;;;;;;5032647;28;19923;-73
2022/01/06 06:27:27;;;;;;;;;;;;;;;;;;5030889;28;19913;-72
2022/01/06 06:29:53;;;;;;;;;;;;;;;;;;5034034;28;19917;-73
2022/01/06 06:32:19;;;;;;;;;;;;;;;;;;5029963;28;20062;-72
2022/01/06 06:34:45;;;;;;;;;;;;;;;;;;5033084;28;20064;-72
2022/01/06 06:37:11;;;;;;;;;;;;;;;;;;5034938;28;19917;-73
2022/01/06 06:39:37;;;;;;;;;;;;;;;;;;5030980;28;19924;-72
2022/01/06 06:42:03;;;;;;;;;;;;;;;;;;5034083;28;20384;-73
2022/01/06 06:44:28;;;;;;;;;;;;;;;;;;5035068;28;19923;-72
2022/01/06 06:46:54;;;;;;;;;;;;;;;;;;5027726;28;19912;-72
2022/01/06 06:49:20;;;;;;;;;;;;;;;;;;5031903;28;20535;-72
2022/01/06 06:51:46;;;;;;;;;;;;;;;;;;5031634;28;19917;-72
2022/01/06 06:54:13;;;;;;;;;;;;;;;;;;5030572;28;19935;-72
2022/01/06 06:56:39;;;;;;;;;;;;;;;;;;5030096;28;19917;-72
2022/01/06 06:59:05;;;;;;;;;;;;;;;;;;5029110;28;19936;-73
2022/01/06 07:01:31;;;;;;;;;;;;;;;;;;5033950;28;19917;-72
2022/01/06 07:03:57;;;;;;;;;;;;;;;;;;5024413;28;20519;-72
2022/01/06 07:06:22;;;;;;;;;;;;;;;;;;5029677;28;20001;-72
2022/01/06 07:08:48;;;;;;;;;;;;;;;;;;5031784;28;19921;-72
2022/01/06 07:11:14;;;;;;;;;;;;;;;;;;5033022;28;20433;-72
2022/01/06 07:13:40;;;;;;;;;;;;;;;;;;5029404;28;19977;-72
2022/01/06 07:16:06;;;;;;;;;;;;;;;;;;5028901;28;20012;-72
2022/01/06 07:18:32;;;;;;;;;;;;;;;;;;5029461;28;20228;-72
2022/01/06 07:20:58;;;;;;;;;;;;;;;;;;5031965;28;19924;-72
2022/01/06 07:23:24;;;;;;;;;;;;;;;;;;5032300;28;19921;-72
2022/01/06 07:25:50;;;;;;;;;;;;;;;;;;5034030;28;19921;-72
2022/01/06 07:28:15;;;;;;;;;;;;;;;;;;5029911;28;19967;-72
2022/01/06 07:30:41;;;;;;;;;;;;;;;;;;5032984;28;20464;-72
2022/01/06 07:33:07;;;;;;;;;;;;;;;;;;5029379;28;19917;-72
2022/01/06 07:35:33;;;;;;;;;;;;;;;;;;5025839;28;19917;-72
2022/01/06 07:37:59;;;;;;;;;;;;;;;;;;5028495;28;20060;-72
2022/01/06 07:40:25;;;;;;;;;;;;;;;;;;5028911;28;19974;-72
2022/01/06 07:42:51;;;;;;;;;;;;;;;;;;5033640;28;19916;-72
2022/01/06 07:45:16;;;;;;;;;;;;;;;;;;5034718;28;19973;-72
2022/01/06 07:47:54;;;;;;;;;;;;;;;;;;5031087;28;19913;-73
2022/01/06 07:50:20;;;;;;;;;;;;;;;;;;5031550;28;20260;-72
2022/01/06 07:52:46;;;;;;;;;;;;;;;;;;5035487;28;19917;-72
2022/01/06 07:55:12;;;;;;;;;;;;;;;;;;5024986;28;19909;-72
2022/01/06 07:57:38;;;;;;;;;;;;;;;;;;5024342;28;19921;-72
2022/01/06 08:00:04;;;;;;;;;;;;;;;;;;5031144;28;19913;-73
2022/01/06 08:02:30;;;;;;;;;;;;;;;;;;5030615;28;19924;-72
2022/01/06 08:04:55;;;;;;;;;;;;;;;;;;5031458;28;19916;-72
2022/01/06 08:07:21;;;;;;;;;;;;;;;;;;5032031;28;19917;-72
2022/01/06 08:09:47;;;;;;;;;;;;;;;;;;5032753;28;19918;-72
2022/01/06 08:12:13;;;;;;;;;;;;;;;;;;5042100;28;19985;-72
2022/01/06 08:14:39;;;;;;;;;;;;;;;;;;5031264;28;19921;-72
2022/01/06 08:17:05;;;;;;;;;;;;;;;;;;5031356;28;19921;-72
2022/01/06 08:19:31;;;;;;;;;;;;;;;;;;5039775;28;19981;-72
2022/01/06 08:21:57;;;;;;;;;;;;;;;;;;5035530;28;19913;-72
2022/01/06 08:24:22;;;;;;;;;;;;;;;;;;5043610;28;20243;-72
2022/01/06 08:26:48;;;;;;;;;;;;;;;;;;5032800;28;20066;-72
2022/01/06 08:29:14;;;;;;;;;;;;;;;;;;5033995;28;19973;-72
2022/01/06 08:31:46;;;;;;;;;;;;;;;;;;5035093;28;20367;-72
2022/01/06 08:34:12;;;;;;;;;;;;;;;;;;5033915;27;19996;-72
2022/01/06 08:36:38;;;;;;;;;;;;;;;;;;5038495;28;20378;-72
2022/01/06 08:39:04;;;;;;;;;;;;;;;;;;5045917;28;19934;-72
2022/01/06 08:41:30;;;;;;;;;;;;;;;;;;5039357;28;20443;-72
2022/01/06 08:43:55;;;;;;;;;;;;;;;;;;5039015;28;19928;-73
2022/01/06 08:46:21;;;;;;;;;;;;;;;;;;5034879;28;19919;-72
2022/01/06 08:48:47;;;;;;;;;;;;;;;;;;5047663;28;20251;-72
2022/01/06 08:51:13;;;;;;;;;;;;;;;;;;5039678;28;20019;-72
2022/01/06 08:53:39;;;;;;;;;;;;;;;;;;5042257;28;20259;-72
2022/01/06 08:56:05;;;;;;;;;;;;;;;;;;5040765;28;19977;-72
2022/01/06 08:58:31;;;;;;;;;;;;;;;;;;5039436;28;19920;-73
2022/01/06 09:00:56;;;;;;;;;;;;;;;;;;5037991;28;20512;-72
2022/01/06 09:03:22;;;;;;;;;;;;;;;;;;5034262;28;19924;-72
2022/01/06 09:05:48;;;;;;;;;;;;;;;;;;5028418;28;19909;-72
2022/01/06 09:08:14;;;;;;;;;;;;;;;;;;5033308;28;19917;-72
2022/01/06 09:10:40;;;;;;;;;;;;;;;;;;5037996;28;19953;-72
2022/01/06 09:13:06;;;;;;;;;;;;;;;;;;5027917;28;20350;-73
2022/01/06 09:15:32;;;;;;;;;;;;;;;;;;5027357;28;20692;-72
2022/01/06 09:17:59;;;;;;;;;;;;;;;;;;5033429;28;19947;-75
2022/01/06 09:20:25;;;;;;;;;;;;;;;;;;5033702;28;20434;-73
2022/01/06 09:22:51;;;;;;;;;;;;;;;;;;5037716;28;20008;-72
2022/01/06 09:25:17;;;;;;;;;;;;;;;;;;5033324;28;20053;-73
2022/01/06 09:27:43;;;;;;;;;;;;;;;;;;5033827;28;20171;-73
2022/01/06 09:30:08;;;;;;;;;;;;;;;;;;5036060;28;20013;-73
2022/01/06 09:32:34;;;;;;;;;;;;;;;;;;5027608;28;19924;-72
2022/01/06 09:35:00;;;;;;;;;;;;;;;;;;5027764;28;19941;-72
2022/01/06 09:37:26;;;;;;;;;;;;;;;;;;5027243;28;20302;-73
2022/01/06 09:39:52;;;;;;;;;;;;;;;;;;5028142;28;19921;-73
2022/01/06 09:42:18;;;;;;;;;;;;;;;;;;5026766;28;19913;-73
2022/01/06 09:44:44;;;;;;;;;;;;;;;;;;5037699;28;19958;-73
2022/01/06 09:47:10;;;;;;;;;;;;;;;;;;5029057;28;20415;-73
2022/01/06 09:49:37;;;;;;;;;;;;;;;;;;5039269;28;20299;-73
2022/01/06 09:52:03;;;;;;;;;;;;;;;;;;5029022;28;19917;-73
2022/01/06 09:54:28;;;;;;;;;;;;;;;;;;5038699;28;20498;-73
2022/01/06 09:56:54;;;;;;;;;;;;;;;;;;5038240;28;19962;-74
2022/01/06 09:59:20;;;;;;;;;;;;;;;;;;5027322;28;19935;-73
2022/01/06 10:01:46;;;;;;;;;;;;;;;;;;5029528;28;20550;-73
2022/01/06 10:04:12;;;;;;;;;;;;;;;;;;5036307;28;19913;-72
2022/01/06 10:06:38;;;;;;;;;;;;;;;;;;5032339;28;19962;-73
2022/01/06 10:09:05;;;;;;;;;;;;;;;;;;5031797;28;19947;-71
2022/01/06 10:11:31;;;;;;;;;;;;;;;;;;5035216;28;19917;-73
2022/01/06 10:13:58;;;;;;;;;;;;;;;;;;5042876;28;19953;-73
2022/01/06 10:16:24;;;;;;;;;;;;;;;;;;5036448;28;19920;-75
2022/01/06 10:18:52;;;;;;;;;;;;;;;;;;5033066;28;21241;-77
2022/01/06 10:21:18;;;;;;;;;;;;;;;;;;5038632;28;19977;-74
2022/01/06 10:23:44;;;;;;;;;;;;;;;;;;5038989;28;19913;-75
2022/01/06 10:26:10;;;;;;;;;;;;;;;;;;5034396;28;19995;-75
2022/01/06 10:28:37;;;;;;;;;;;;;;;;;;5037343;28;19916;-74
2022/01/06 10:31:03;;;;;;;;;;;;;;;;;;5036088;28;20125;-74
2022/01/06 10:33:29;;;;;;;;;;;;;;;;;;5029409;28;20255;-75
2022/01/06 10:35:55;;;;;;;;;;;;;;;;;;5029858;28;19921;-76
2022/01/06 10:38:21;;;;;;;;;;;;;;;;;;5027495;28;19932;-75
2022/01/06 10:40:47;;;;;;;;;;;;;;;;;;5032123;28;19913;-75
2022/01/06 10:43:15;;;;;;;;;;;;;;;;;;5030554;28;19913;-75
2022/01/06 10:45:41;;;;;;;;;;;;;;;;;;5032048;28;20334;-76
2022/01/06 10:48:07;;;;;;;;;;;;;;;;;;5035178;28;19944;-74
2022/01/06 10:50:33;;;;;;;;;;;;;;;;;;5035156;28;20425;-75
2022/01/06 10:53:00;;;;;;;;;;;;;;;;;;5036582;28;19917;-74
2022/01/06 10:55:27;;;;;;;;;;;;;;;;;;5037088;28;19921;-75
2022/01/06 10:57:53;;;;;;;;;;;;;;;;;;5032679;28;19961;-74
2022/01/06 11:00:19;;;;;;;;;;;;;;;;;;5029538;28;19960;-74
2022/01/06 11:02:45;;;;;;;;;;;;;;;;;;5036342;28;20012;-74
2022/01/06 11:05:11;;;;;;;;;;;;;;;;;;5027618;28;19920;-75
2022/01/06 11:07:37;;;;;;;;;;;;;;;;;;5026413;28;20007;-74
2022/01/06 11:10:05;;;;;;;;;;;;;;;;;;5025267;28;19917;-74
2022/01/06 11:12:33;;;;;;;;;;;;;;;;;;5031305;28;19921;-74
2022/01/06 11:14:59;;;;;;;;;;;;;;;;;;5026404;28;19953;-74
2022/01/06 11:17:25;;;;;;;;;;;;;;;;;;5026353;28;20312;-74
2022/01/06 11:19:51;;;;;;;;;;;;;;;;;;5031893;28;19917;-74
2022/01/06 11:22:16;;;;;;;;;;;;;;;;;;5040497;28;19979;-74
2022/01/06 11:24:42;;;;;;;;;;;;;;;;;;5037562;28;20262;-75
2022/01/06 11:27:10;;;;;;;;;;;;;;;;;;5051030;28;19913;-74
2022/01/06 11:29:36;;;;;;;;;;;;;;;;;;5048284;28;19913;-75
2022/01/06 11:32:02;;;;;;;;;;;;;;;;;;5053119;27;19984;-74
2022/01/06 11:34:28;;;;;;;;;;;;;;;;;;5044635;28;20364;-74
2022/01/06 11:36:54;;;;;;;;;;;;;;;;;;5040972;28;19913;-74
2022/01/06 11:39:20;;;;;;;;;;;;;;;;;;5042152;28;19952;-74
2022/01/06 11:41:46;;;;;;;;;;;;;;;;;;5044435;28;19913;-74
2022/01/06 11:44:12;;;;;;;;;;;;;;;;;;5041935;28;19962;-74
2022/01/06 11:46:37;;;;;;;;;;;;;;;;;;5036233;28;20429;-74
2022/01/06 11:49:03;;;;;;;;;;;;;;;;;;5037653;28;19917;-74
2022/01/06 11:51:31;;;;;;;;;;;;;;;;;;5043457;28;20026;-75
2022/01/06 11:53:57;;;;;;;;;;;;;;;;;;5034851;28;20296;-74
2022/01/06 11:56:23;;;;;;;;;;;;;;;;;;5044939;28;20067;-75
2022/01/06 11:58:49;;;;;;;;;;;;;;;;;;5038603;28;20384;-74
2022/01/06 12:01:15;;;;;;;;;;;;;;;;;;5036329;28;19945;-76
2022/01/06 12:03:41;;;;;;;;;;;;;;;;;;5052058;28;19947;-76
2022/01/06 12:06:07;;;;;;;;;;;;;;;;;;5039761;28;20339;-77
2022/01/06 12:08:33;;;;;;;;;;;;;;;;;;5048495;28;19917;-77
2022/01/06 12:10:59;;;;;;;;;;;;;;;;;;5041830;28;19913;-75
2022/01/06 12:13:24;;;;;;;;;;;;;;;;;;5040154;28;20394;-76
2022/01/06 12:15:50;;;;;;;;;;;;;;;;;;5041285;28;19916;-75
2022/01/06 12:18:16;;;;;;;;;;;;;;;;;;5032255;28;19932;-75
2022/01/06 12:20:42;;;;;;;;;;;;;;;;;;5042631;28;19916;-75
2022/01/06 12:23:08;;;;;;;;;;;;;;;;;;5040617;28;19956;-75
2022/01/06 12:25:34;;;;;;;;;;;;;;;;;;5038690;28;19913;-75
2022/01/06 12:28:00;;;;;;;;;;;;;;;;;;5043769;28;19913;-75
2022/01/06 12:30:27;;;;;;;;;;;;;;;;;;5037939;28;19927;-75
2022/01/06 12:32:54;;;;;;;;;;;;;;;;;;5038486;28;20425;-75
2022/01/06 12:35:20;;;;;;;;;;;;;;;;;;5037226;28;19988;-75
2022/01/06 12:37:46;;;;;;;;;;;;;;;;;;5036618;28;20347;-76
2022/01/06 12:40:11;;;;;;;;;;;;;;;;;;5043686;28;19919;-75
2022/01/06 12:42:37;;;;;;;;;;;;;;;;;;5049897;28;19925;-75
2022/01/06 12:45:03;;;;;;;;;;;;;;;;;;5047106;28;20349;-75
2022/01/06 12:47:29;;;;;;;;;;;;;;;;;;5044780;28;19921;-75
2022/01/06 12:49:55;;;;;;;;;;;;;;;;;;5042903;28;20020;-75
2022/01/06 12:52:21;;;;;;;;;;;;;;;;;;5048099;28;19920;-76
2022/01/06 12:54:47;;;;;;;;;;;;;;;;;;5036941;28;20336;-75
2022/01/06 12:57:13;;;;;;;;;;;;;;;;;;5041293;28;19913;-75
2022/01/06 12:59:41;;;;;;;;;;;;;;;;;;5035241;28;20011;-75
2022/01/06 13:02:07;;;;;;;;;;;;;;;;;;5042572;28;19912;-76
2022/01/06 13:04:33;;;;;;;;;;;;;;;;;;5042275;28;19948;-76
2022/01/06 13:06:59;;;;;;;;;;;;;;;;;;5043652;28;19913;-76
2022/01/06 13:09:25;;;;;;;;;;;;;;;;;;5045729;28;19920;-76
2022/01/06 13:11:52;;;;;;;;;;;;;;;;;;5041778;28;19963;-76
2022/01/06 13:14:18;;;;;;;;;;;;;;;;;;5039185;28;19958;-76
2022/01/06 13:16:44;;;;;;;;;;;;;;;;;;5044019;28;19925;-77
2022/01/06 13:19:12;;;;;;;;;;;;;;;;;;5049243;28;19972;-78
2022/01/06 13:21:39;;;;;;;;;;;;;;;;;;5048444;28;19912;-76
2022/01/06 13:24:05;;;;;;;;;;;;;;;;;;5036696;28;20039;-75
2022/01/06 13:26:33;;;;;;;;;;;;;;;;;;5056171;28;19996;-75
2022/01/06 13:28:59;;;;;;;;;;;;;;;;;;5043951;27;20322;-76
2022/01/06 13:31:25;;;;;;;;;;;;;;;;;;5049901;28;19932;-76
2022/01/06 13:33:51;;;;;;;;;;;;;;;;;;5043956;28;20052;-76
2022/01/06 13:36:17;;;;;;;;;;;;;;;;;;5046890;27;20721;-75
2022/01/06 13:38:43;;;;;;;;;;;;;;;;;;5051341;28;19916;-76
2022/01/06 13:41:09;;;;;;;;;;;;;;;;;;5044544;28;19920;-75
2022/01/06 13:43:35;;;;;;;;;;;;;;;;;;5047293;28;19916;-76
2022/01/06 13:46:01;;;;;;;;;;;;;;;;;;5044977;28;19970;-76
2022/01/06 13:51:05;;;;;;;;;;;;;;;;;;5048574;28;19920;-76
2022/01/06 13:53:31;;;;;;;;;;;;;;;;;;5036069;28;19961;-77
2022/01/06 13:55:57;;;;;;;;;;;;;;;;;;5047449;28;19927;-76
2022/01/06 13:58:23;;;;;;;;;;;;;;;;;;5050487;28;19929;-76
2022/01/06 14:00:49;;;;;;;;;;;;;;;;;;5043147;28;20235;-77
2022/01/06 14:03:14;;;;;;;;;;;;;;;;;;5040215;28;19924;-77
2022/01/06 14:05:40;;;;;;;;;;;;;;;;;;5044018;28;19921;-76
2022/01/06 14:08:07;;;;;;;;;;;;;;;;;;5044798;28;19912;-76
2022/01/06 14:10:32;;;;;;;;;;;;;;;;;;5044295;28;19912;-77
2022/01/06 14:12:58;;;;;;;;;;;;;;;;;;5040902;28;19931;-77
2022/01/06 14:15:24;;;;;;;;;;;;;;;;;;5045041;28;19917;-77
2022/01/06 14:17:50;;;;;;;;;;;;;;;;;;5034273;28;20522;-77
2022/01/06 14:20:16;;;;;;;;;;;;;;;;;;5032006;28;19924;-76
2022/01/06 14:22:42;;;;;;;;;;;;;;;;;;5026073;28;19920;-76
2022/01/06 14:25:08;;;;;;;;;;;;;;;;;;5027752;28;19917;-76
2022/01/06 14:27:33;;;;;;;;;;;;;;;;;;5028832;28;19921;-76
2022/01/06 14:29:59;;;;;;;;;;;;;;;;;;5030585;28;19913;-75
2022/01/06 14:32:25;;;;;;;;;;;;;;;;;;5038654;28;19952;-77
2022/01/06 14:34:51;;;;;;;;;;;;;;;;;;5027999;28;19936;-77
2022/01/06 14:37:17;;;;;;;;;;;;;;;;;;5026516;28;19909;-77
2022/01/06 14:39:43;;;;;;;;;;;;;;;;;;5025409;28;20365;-77
2022/01/06 14:42:10;;;;;;;;;;;;;;;;;;5026285;28;20347;-76
2022/01/06 14:44:36;;;;;;;;;;;;;;;;;;5026121;28;19928;-77
2022/01/06 14:47:02;;;;;;;;;;;;;;;;;;5024653;28;20209;-77
2022/01/06 14:49:28;;;;;;;;;;;;;;;;;;5028916;28;19917;-77
2022/01/06 14:51:55;;;;;;;;;;;;;;;;;;5032092;28;20351;-78
2022/01/06 14:54:21;;;;;;;;;;;;;;;;;;5031278;27;20196;-78
2022/01/06 14:56:47;;;;;;;;;;;;;;;;;;5025332;28;20003;-77
2022/01/06 14:59:13;;;;;;;;;;;;;;;;;;5029204;28;19950;-77
2022/01/06 15:01:39;;;;;;;;;;;;;;;;;;5073785;27;20386;-77
2022/01/06 15:04:05;;;;;;;;;;;;;;;;;;5026404;28;19986;-77
2022/01/06 15:06:31;;;;;;;;;;;;;;;;;;5041680;28;19910;-77
2022/01/06 15:08:56;;;;;;;;;;;;;;;;;;5040521;28;20270;-77
2022/01/06 15:11:22;;;;;;;;;;;;;;;;;;5024435;28;19925;-77
2022/01/06 15:13:48;;;;;;;;;;;;;;;;;;5024757;28;19925;-77
2022/01/06 15:16:14;;;;;;;;;;;;;;;;;;5026003;28;19913;-75
2022/01/06 15:18:41;;;;;;;;;;;;;;;;;;5025802;28;19940;-75
2022/01/06 15:21:07;;;;;;;;;;;;;;;;;;5028827;28;19935;-75
2022/01/06 15:23:33;;;;;;;;;;;;;;;;;;5031535;28;20331;-75
2022/01/06 15:25:59;;;;;;;;;;;;;;;;;;5038154;28;19928;-75
2022/01/06 15:28:25;;;;;;;;;;;;;;;;;;5041036;28;19921;-75
2022/01/06 15:30:51;;;;;;;;;;;;;;;;;;5028742;27;19917;-75
2022/01/06 15:33:17;;;;;;;;;;;;;;;;;;5035188;28;19909;-76
2022/01/06 15:35:43;;;;;;;;;;;;;;;;;;5024316;28;19950;-76
2022/01/06 15:38:09;;;;;;;;;;;;;;;;;;5023409;28;19921;-76
2022/01/06 15:40:35;;;;;;;;;;;;;;;;;;5033959;28;19928;-77
2022/01/06 15:43:03;;;;;;;;;;;;;;;;;;5029639;28;19913;-72
2022/01/06 15:45:29;;;;;;;;;;;;;;;;;;5025836;28;19946;-72
2022/01/06 15:47:57;;;;;;;;;;;;;;;;;;5033020;28;19917;-72
2022/01/06 15:50:23;;;;;;;;;;;;;;;;;;5033316;28;19913;-72
2022/01/06 15:52:49;;;;;;;;;;;;;;;;;;5027725;28;19921;-72
2022/01/06 15:55:14;;;;;;;;;;;;;;;;;;5035916;28;21686;-74
2022/01/06 15:57:40;;;;;;;;;;;;;;;;;;5034433;28;19931;-80
2022/01/06 16:00:27;;;;;;;;;;;;;;;;;;5021117;28;19996;-73
2022/01/06 16:05:38;;;;;;;;;;;;;;;;;;5033382;28;20837;-72
2022/01/06 16:08:04;;;;;;;;;;;;;;;;;;5031824;28;19940;-73
2022/01/06 16:10:30;;;;;;;;;;;;;;;;;;5029952;28;19925;-73
2022/01/06 16:12:56;;;;;;;;;;;;;;;;;;5023653;28;20015;-72
2022/01/06 16:15:23;;;;;;;;;;;;;;;;;;5024562;28;20264;-72
2022/01/06 16:17:49;;;;;;;;;;;;;;;;;;5031632;28;19967;-73
2022/01/06 16:20:15;;;;;;;;;;;;;;;;;;5030702;28;19920;-73
2022/01/06 16:22:40;;;;;;;;;;;;;;;;;;5030632;28;19978;-72
2022/01/06 16:25:06;;;;;;;;;;;;;;;;;;5036349;28;20012;-73
2022/01/06 16:27:32;;;;;;;;;;;;;;;;;;5038402;28;19913;-72
2022/01/06 16:29:58;;;;;;;;;;;;;;;;;;5033879;28;19913;-72
2022/01/06 16:32:25;;;;;;;;;;;;;;;;;;5042207;28;20339;-72
2022/01/06 16:34:51;;;;;;;;;;;;;;;;;;5040209;28;19913;-72
2022/01/06 16:37:17;;;;;;;;;;;;;;;;;;5043145;28;20381;-72
2022/01/06 16:39:44;;;;;;;;;;;;;;;;;;5034482;28;19978;-73
2022/01/06 16:42:11;;;;;;;;;;;;;;;;;;5040703;28;20250;-74
2022/01/06 16:44:37;;;;;;;;;;;;;;;;;;5029484;28;20415;-72
2022/01/06 16:47:03;;;;;;;;;;;;;;;;;;5039494;28;19913;-73
2022/01/06 16:49:29;;;;;;;;;;;;;;;;;;5039300;28;19913;-73